Time;durP1;ratioP1;P1;durP2;ratioP2;P2;SDS_P1;SDS_P2;PMS_P1;PMS_P2;Temp;Humidity;BMP_temperature;BMP_pressure;BME280_temperature;BME280_humidity;BME280_pressure;Samples;Min_cycle;Max_cycle;Signal;HPM_P1;HPM_P2
2022/12/24 00:00:43;;;;;;;5.77;5.20;;;11.80;99.90;;;;;;10365849;28;20205;-80
2022/12/24 00:05:48;;;;;;;6.57;5.97;;;11.80;99.90;;;;;;10358198;28;20232;-80
2022/12/24 00:10:53;;;;;;;6.93;5.10;;;11.90;99.90;;;;;;10359162;28;20248;-80
2022/12/24 00:15:55;;;;;;;7.10;5.23;;;11.90;99.90;;;;;;10351542;28;20762;-80
2022/12/24 00:20:57;;;;;;;5.67;5.27;;;11.90;99.90;;;;;;10361747;28;20200;-80
2022/12/24 00:26:01;;;;;;;6.17;5.77;;;12.00;99.90;;;;;;10359712;28;20219;-80
2022/12/24 00:31:12;;;;;;;5.80;5.13;;;12.00;99.90;;;;;;10358431;28;20592;-80
2022/12/24 00:36:14;;;;;;;9.20;5.10;;;12.00;99.90;;;;;;10359589;28;20642;-80
2022/12/24 00:41:27;;;;;;;7.93;4.87;;;12.00;99.90;;;;;;10370934;28;20666;-80
2022/12/24 00:46:31;;;;;;;5.80;4.70;;;12.00;99.90;;;;;;10355538;28;20744;-80
2022/12/24 00:51:34;;;;;;;6.20;4.63;;;12.00;99.90;;;;;;10341035;28;20203;-79
2022/12/24 00:56:37;;;;;;;6.50;4.57;;;12.00;99.90;;;;;;10363411;28;20293;-79
2022/12/24 01:01:39;;;;;;;7.03;4.50;;;12.00;99.90;;;;;;10341423;28;20199;-79
2022/12/24 01:06:41;;;;;;;5.53;3.70;;;12.00;99.90;;;;;;10400277;23;20232;-79
2022/12/24 01:11:45;;;;;;;4.83;4.40;;;12.00;99.90;;;;;;10428272;28;20232;-79
2022/12/24 01:16:47;;;;;;;5.70;4.27;;;12.00;99.90;;;;;;10410300;28;20214;-79
2022/12/24 01:21:49;;;;;;;6.17;4.10;;;12.00;99.90;;;;;;10427506;28;20205;-79
2022/12/24 01:26:52;;;;;;;6.97;4.30;;;12.00;99.90;;;;;;10426587;28;20210;-79
2022/12/24 01:31:54;;;;;;;5.63;4.17;;;12.00;99.90;;;;;;10428894;28;20208;-79
2022/12/24 01:36:57;;;;;;;7.70;4.10;;;12.00;99.90;;;;;;10427395;28;20213;-79
2022/12/24 01:47:23;;;;;;;7.10;4.17;;;12.00;99.90;;;;;;10425824;28;20259;-79
2022/12/24 01:52:29;;;;;;;7.73;5.53;;;12.00;99.90;;;;;;10426996;28;20190;-79
2022/12/24 01:57:37;;;;;;;9.93;7.43;;;12.00;99.90;;;;;;10428425;28;20283;-79
2022/12/24 02:02:41;;;;;;;9.20;8.40;;;11.90;99.90;;;;;;10425800;28;20194;-79
2022/12/24 02:07:43;;;;;;;9.93;8.90;;;11.80;99.90;;;;;;10430966;28;20221;-79
2022/12/24 02:12:47;;;;;;;10.57;9.17;;;11.70;99.90;;;;;;10416569;28;20583;-80
2022/12/24 02:18:09;;;;;;;11.83;9.23;;;11.60;99.90;;;;;;10432365;28;20468;-80
2022/12/24 02:23:41;;;;;;;10.80;9.70;;;11.50;99.90;;;;;;10417763;28;20213;-80
2022/12/24 02:29:14;;;;;;;10.13;9.13;;;11.50;99.90;;;;;;10427640;28;20218;-80
2022/12/24 02:34:22;;;;;;;11.03;9.90;;;11.40;99.90;;;;;;10435471;28;20209;-80
2022/12/24 02:39:31;;;;;;;12.47;10.50;;;11.30;99.90;;;;;;10435682;28;20238;-80
2022/12/24 02:44:40;;;;;;;16.00;11.07;;;11.20;99.90;;;;;;10432108;28;20237;-79
2022/12/24 02:49:47;;;;;;;14.77;13.27;;;11.10;99.90;;;;;;10427935;28;20215;-80
2022/12/24 02:54:49;;;;;;;11.97;10.80;;;11.10;99.90;;;;;;10432177;28;20267;-79
2022/12/24 03:00:02;;;;;;;11.70;10.60;;;11.10;99.90;;;;;;10428274;28;20572;-79
2022/12/24 03:05:18;;;;;;;11.10;10.03;;;11.00;99.90;;;;;;10426856;28;20222;-79
2022/12/24 03:10:24;;;;;;;11.93;10.00;;;11.00;99.90;;;;;;10432001;28;20331;-79
2022/12/24 03:15:27;;;;;;;24.67;15.23;;;10.90;99.90;;;;;;10410432;28;20346;-79
2022/12/24 03:20:35;;;;;;;11.83;10.60;;;10.80;99.90;;;;;;10430883;28;20446;-79
2022/12/24 03:25:41;;;;;;;11.30;10.30;;;10.80;99.90;;;;;;10413400;28;20238;-80
2022/12/24 03:30:44;;;;;;;11.90;9.93;;;10.80;99.90;;;;;;10414633;28;20233;-80
2022/12/24 03:35:48;;;;;;;14.30;10.00;;;10.90;99.90;;;;;;10430629;28;20256;-80
2022/12/24 03:40:50;;;;;;;12.77;9.20;;;10.80;99.90;;;;;;10431599;28;20293;-80
2022/12/24 03:45:52;;;;;;;32.63;16.80;;;10.80;99.90;;;;;;10432644;28;20232;-80
2022/12/24 03:50:55;;;;;;;10.43;9.33;;;10.70;99.90;;;;;;10440787;28;20189;-80
2022/12/24 03:55:57;;;;;;;71.40;23.43;;;10.70;99.90;;;;;;10441796;28;20225;-79
2022/12/24 04:00:59;;;;;;;11.60;8.87;;;10.70;99.90;;;;;;10442978;28;20237;-80
2022/12/24 04:06:05;;;;;;;26.83;13.70;;;10.70;99.90;;;;;;10439813;28;20248;-79
2022/12/24 04:11:10;;;;;;;13.53;9.13;;;10.70;99.90;;;;;;10418407;28;20208;-80
2022/12/24 04:16:14;;;;;;;21.07;11.23;;;10.60;99.90;;;;;;10429531;28;20742;-80
2022/12/24 04:21:17;;;;;;;16.37;9.93;;;10.60;99.90;;;;;;10428341;28;20277;-79
2022/12/24 04:26:20;;;;;;;11.87;10.67;;;10.60;99.90;;;;;;10428665;28;20217;-80
2022/12/24 04:31:22;;;;;;;11.30;10.20;;;10.60;99.90;;;;;;10437565;28;20194;-80
2022/12/24 04:36:25;;;;;;;10.67;9.77;;;10.60;99.90;;;;;;10432055;28;20242;-80
2022/12/24 04:41:27;;;;;;;11.33;10.33;;;10.50;99.90;;;;;;10424962;28;20206;-80
2022/12/24 04:46:30;;;;;;;13.80;11.03;;;10.50;99.90;;;;;;10425626;28;20241;-80
2022/12/24 04:51:33;;;;;;;12.57;11.30;;;10.50;99.90;;;;;;10425303;28;20205;-80
2022/12/24 04:56:35;;;;;;;15.60;11.77;;;10.40;99.90;;;;;;10424249;28;20678;-80
2022/12/24 05:01:37;;;;;;;13.30;11.90;;;10.50;99.90;;;;;;10425004;28;20190;-80
2022/12/24 05:06:41;;;;;;;13.20;11.30;;;10.50;99.90;;;;;;10425499;28;20220;-81
2022/12/24 05:11:43;;;;;;;15.63;12.50;;;10.50;99.90;;;;;;10423967;28;20198;-81
2022/12/24 05:16:45;;;;;;;13.23;11.93;;;10.50;99.90;;;;;;10426439;28;20228;-80
2022/12/24 05:26:20;;;;;;;14.03;10.70;;;10.50;99.90;;;;;;10423468;28;20193;-80
2022/12/24 05:27:11;;;;;;;11.70;10.60;;;10.50;99.90;;;;;;10421014;28;20232;-79
2022/12/24 05:32:13;;;;;;;13.53;11.20;;;10.40;99.90;;;;;;10404859;28;20205;-79
2022/12/24 05:37:16;;;;;;;14.07;11.07;;;10.40;99.90;;;;;;10424703;28;20229;-80
2022/12/24 05:42:18;;;;;;;11.57;10.30;;;10.30;99.90;;;;;;10423917;28;20550;-79
2022/12/24 05:47:20;;;;;;;15.30;10.30;;;10.30;99.90;;;;;;10423924;28;20285;-79
2022/12/24 05:52:24;;;;;;;11.33;9.80;;;10.30;99.90;;;;;;10405760;28;20213;-79
2022/12/24 05:57:26;;;;;;;9.40;8.43;;;10.30;99.90;;;;;;10420823;28;20226;-80
2022/12/24 06:02:28;;;;;;;13.43;10.03;;;10.30;99.90;;;;;;10421582;28;20194;-79
2022/12/24 06:07:31;;;;;;;15.90;9.00;;;10.30;99.90;;;;;;10420226;28;20228;-79
2022/12/24 06:12:33;;;;;;;12.60;8.27;;;10.30;99.90;;;;;;10422815;28;20252;-79
2022/12/24 06:17:35;;;;;;;14.23;7.57;;;10.30;99.90;;;;;;10421609;28;20248;-78
2022/12/24 06:22:39;;;;;;;8.93;6.30;;;10.30;99.90;;;;;;10421057;28;20248;-79
2022/12/24 06:27:41;;;;;;;14.20;6.97;;;10.30;99.90;;;;;;10419095;28;20233;-79
2022/12/24 06:32:43;;;;;;;8.37;5.53;;;10.30;99.90;;;;;;10416443;28;20611;-80
2022/12/24 06:37:46;;;;;;;14.57;7.13;;;10.20;99.90;;;;;;10398786;28;20216;-79
2022/12/24 06:42:48;;;;;;;12.63;7.30;;;10.10;99.90;;;;;;10420221;28;20186;-78
2022/12/24 06:47:50;;;;;;;13.17;8.13;;;10.00;99.90;;;;;;10421975;28;20214;-79
2022/12/24 06:52:54;;;;;;;9.53;8.50;;;9.90;99.90;;;;;;10426739;28;20198;-79
2022/12/24 06:57:56;;;;;;;8.03;7.30;;;9.80;99.90;;;;;;10422092;28;20229;-80
2022/12/24 07:02:58;;;;;;;14.80;7.40;;;9.80;99.90;;;;;;10415916;28;20194;-80
2022/12/24 07:08:02;;;;;;;8.00;6.60;;;9.80;99.90;;;;;;10394527;23;20725;-81
2022/12/24 07:13:04;;;;;;;9.60;6.60;;;9.80;99.90;;;;;;10341369;28;20266;-81
2022/12/24 07:18:06;;;;;;;12.00;7.53;;;9.90;99.90;;;;;;10340391;28;20796;-82
2022/12/24 07:23:09;;;;;;;7.27;5.50;;;10.00;99.90;;;;;;10343176;28;20195;-81
2022/12/24 07:28:11;;;;;;;7.10;6.40;;;10.20;99.90;;;;;;10364303;28;20246;-81
2022/12/24 07:33:13;;;;;;;10.83;6.00;;;10.20;99.90;;;;;;10353972;28;20219;-82
2022/12/24 07:38:17;;;;;;;7.13;6.10;;;10.30;99.90;;;;;;10352860;28;20282;-82
2022/12/24 07:43:19;;;;;;;9.70;5.83;;;10.30;99.90;;;;;;10375842;28;20198;-81
2022/12/24 07:48:21;;;;;;;8.20;6.00;;;10.20;99.90;;;;;;10362148;28;20632;-81
2022/12/24 07:53:26;;;;;;;8.63;5.33;;;10.20;99.90;;;;;;10361582;28;20182;-81
2022/12/24 07:58:28;;;;;;;14.03;6.20;;;10.20;99.90;;;;;;10372392;28;20273;-80
2022/12/24 08:03:30;;;;;;;6.00;5.50;;;10.20;99.90;;;;;;10334606;28;20518;-79
2022/12/24 08:08:34;;;;;;;7.70;4.07;;;10.20;99.90;;;;;;10335806;28;20641;-79
2022/12/24 08:13:36;;;;;;;8.93;5.30;;;10.30;99.90;;;;;;10334237;28;20221;-80
2022/12/24 08:18:38;;;;;;;10.37;5.50;;;10.30;99.90;;;;;;10328621;28;20219;-78
2022/12/24 08:23:44;;;;;;;9.40;5.40;;;10.30;99.90;;;;;;10329014;28;20218;-79
2022/12/24 08:28:53;;;;;;;10.10;5.20;;;10.30;99.90;;;;;;10382616;28;20211;-79
2022/12/24 08:34:00;;;;;;;7.27;4.90;;;10.40;99.90;;;;;;10339357;28;20206;-81
2022/12/24 08:39:04;;;;;;;8.20;4.40;;;10.40;99.90;;;;;;10345862;28;20215;-82
2022/12/24 08:44:06;;;;;;;9.70;4.87;;;10.50;99.90;;;;;;10352352;28;20219;-82
2022/12/24 08:49:11;;;;;;;8.00;4.30;;;10.60;99.90;;;;;;10355117;28;20217;-82
2022/12/24 08:54:15;;;;;;;14.93;5.50;;;10.70;99.90;;;;;;10358118;28;20188;-80
2022/12/24 08:59:17;;;;;;;12.50;4.90;;;10.70;99.90;;;;;;10368059;28;20218;-80
2022/12/24 09:04:19;;;;;;;13.87;5.87;;;10.70;99.90;;;;;;10338471;28;20199;-80
2022/12/24 09:09:22;;;;;;;7.53;3.07;;;10.80;99.90;;;;;;10342179;28;20223;-80
2022/12/24 09:14:24;;;;;;;9.13;4.20;;;10.80;99.90;;;;;;10336350;28;20230;-80
2022/12/24 09:19:27;;;;;;;10.13;5.30;;;10.90;99.90;;;;;;10343432;28;20223;-80
2022/12/24 09:24:31;;;;;;;8.80;4.60;;;11.00;99.90;;;;;;10343057;28;20261;-80
2022/12/24 09:29:33;;;;;;;10.77;4.43;;;11.00;99.90;;;;;;10340444;28;20305;-80
2022/12/24 09:34:35;;;;;;;9.43;4.60;;;11.10;99.90;;;;;;10338561;28;20278;-80
2022/12/24 09:39:38;;;;;;;12.37;5.00;;;11.20;99.90;;;;;;10338449;28;20245;-80
2022/12/24 09:44:44;;;;;;;22.43;4.67;;;11.30;99.90;;;;;;10338231;28;20246;-80
2022/12/24 09:49:50;;;;;;;6.57;4.30;;;11.30;99.90;;;;;;10320978;28;20215;-80
2022/12/24 09:55:01;;;;;;;17.00;8.83;;;11.30;99.90;;;;;;10347061;28;20270;-80
2022/12/24 10:00:16;;;;;;;20.33;10.20;;;11.30;99.90;;;;;;10337151;28;20219;-80
2022/12/24 10:05:27;;;;;;;14.20;7.93;;;11.40;99.90;;;;;;10339766;28;20281;-80
2022/12/24 10:10:37;;;;;;;23.30;12.17;;;11.30;99.90;;;;;;10337262;28;20191;-80
2022/12/24 10:15:45;;;;;;;15.67;7.40;;;11.30;99.90;;;;;;10340624;28;20218;-80
2022/12/24 10:20:53;;;;;;;6.87;5.10;;;11.40;99.90;;;;;;10351452;28;20222;-80
2022/12/24 10:26:06;;;;;;;14.70;7.40;;;11.40;99.90;;;;;;10335791;28;20737;-80
2022/12/24 10:31:09;;;;;;;13.50;6.67;;;11.50;99.90;;;;;;10296375;28;20192;-80
2022/12/24 10:36:16;;;;;;;8.17;3.53;;;11.50;99.90;;;;;;10322584;28;20246;-80
2022/12/24 10:41:20;;;;;;;11.20;5.07;;;11.50;99.90;;;;;;10324261;28;20199;-81
2022/12/24 10:46:24;;;;;;;14.70;7.23;;;11.50;99.90;;;;;;10321407;28;20215;-81
2022/12/24 10:51:37;;;;;;;8.33;4.93;;;11.50;99.90;;;;;;10299682;28;20232;-80
2022/12/24 10:56:44;;;;;;;8.87;4.80;;;11.60;99.90;;;;;;10323910;28;20231;-80
2022/12/24 11:01:47;;;;;;;15.43;6.60;;;11.70;99.90;;;;;;10334331;28;20616;-80
2022/12/24 11:06:54;;;;;;;12.80;5.47;;;11.90;99.90;;;;;;10317489;28;20293;-80
2022/12/24 11:12:00;;;;;;;9.27;4.13;;;11.90;99.90;;;;;;10335023;28;20199;-81
2022/12/24 11:17:02;;;;;;;8.40;4.23;;;12.10;99.90;;;;;;10335997;28;20221;-81
2022/12/24 11:22:06;;;;;;;10.20;5.43;;;12.10;99.90;;;;;;10336630;28;20199;-81
2022/12/24 11:27:32;;;;;;;9.43;4.40;;;12.20;99.90;;;;;;10342548;28;20691;-81
2022/12/24 11:32:34;;;;;;;8.80;4.90;;;12.20;99.90;;;;;;10336236;28;20687;-81
2022/12/24 11:37:36;;;;;;;9.63;4.30;;;12.20;99.90;;;;;;10330724;28;20318;-81
2022/12/24 11:42:40;;;;;;;10.57;3.93;;;12.20;99.90;;;;;;10319666;28;20259;-81
2022/12/24 11:47:42;;;;;;;9.97;4.50;;;12.20;99.90;;;;;;10318211;28;20266;-81
2022/12/24 11:52:47;;;;;;;8.13;5.13;;;12.30;99.90;;;;;;10364376;28;20560;-82
2022/12/24 11:57:57;;;;;;;9.70;5.30;;;12.40;99.90;;;;;;10352305;28;20269;-81
2022/12/24 12:03:01;;;;;;;9.63;4.80;;;12.40;99.90;;;;;;10334394;28;20203;-81
2022/12/24 12:08:11;;;;;;;10.90;4.10;;;12.50;99.90;;;;;;10334855;28;20223;-81
2022/12/24 12:13:17;;;;;;;9.70;4.40;;;12.60;99.90;;;;;;10340817;28;20302;-81
2022/12/24 12:18:23;;;;;;;11.30;4.97;;;12.70;99.90;;;;;;10346024;28;20215;-81
2022/12/24 12:23:30;;;;;;;9.23;5.13;;;12.80;99.90;;;;;;10351046;28;20788;-81
2022/12/24 12:28:40;;;;;;;11.27;5.00;;;12.80;99.90;;;;;;10341245;28;20539;-81
2022/12/24 12:33:47;;;;;;;10.70;5.13;;;12.80;99.90;;;;;;10345054;28;20205;-81
2022/12/24 12:38:51;;;;;;;12.73;4.90;;;12.80;99.90;;;;;;10346010;28;20559;-81
2022/12/24 12:44:21;;;;;;;7.37;4.60;;;12.80;99.90;;;;;;10346501;28;20290;-81
2022/12/24 12:49:37;;;;;;;13.20;5.03;;;12.80;99.90;;;;;;10344569;28;20286;-81
2022/12/24 12:54:53;;;;;;;10.30;4.90;;;12.80;99.90;;;;;;10351908;28;20589;-81
2022/12/24 13:00:01;;;;;;;13.07;5.30;;;12.80;99.90;;;;;;10373772;28;20253;-81
2022/12/24 13:05:31;;;;;;;9.73;5.30;;;12.80;99.90;;;;;;10343128;28;20250;-81
2022/12/24 13:11:04;;;;;;;6.67;4.93;;;12.90;99.90;;;;;;10311901;28;20274;-81
2022/12/24 13:16:33;;;;;;;10.00;4.83;;;12.80;99.90;;;;;;10349662;28;20298;-80
2022/12/24 13:21:36;;;;;;;10.80;4.67;;;12.80;99.90;;;;;;10338404;28;20195;-81
2022/12/24 13:26:38;;;;;;;9.13;4.80;;;12.80;99.90;;;;;;10340508;28;20292;-81
2022/12/24 13:31:41;;;;;;;9.30;4.90;;;12.80;99.90;;;;;;10346589;28;20206;-81
2022/12/24 13:37:20;;;;;;;10.73;5.77;;;12.70;99.90;;;;;;10345353;28;20250;-82
2022/12/24 13:42:48;;;;;;;7.13;4.77;;;12.60;99.90;;;;;;10316038;28;20203;-81
2022/12/24 13:47:51;;;;;;;11.23;5.33;;;12.60;99.90;;;;;;10329092;28;20218;-82
2022/12/24 13:52:54;;;;;;;16.90;5.30;;;12.60;99.90;;;;;;10330775;28;20302;-81
2022/12/24 13:57:59;;;;;;;8.40;5.43;;;12.60;99.90;;;;;;10373705;28;20235;-80
2022/12/24 14:03:07;;;;;;;7.73;4.70;;;12.60;99.90;;;;;;10345218;28;20286;-80
2022/12/24 14:08:13;;;;;;;8.17;4.67;;;12.50;99.90;;;;;;10345012;28;20223;-80
2022/12/24 14:13:51;;;;;;;7.43;4.60;;;12.50;99.90;;;;;;10342144;28;20659;-81
2022/12/24 14:19:01;;;;;;;9.63;5.03;;;12.40;99.90;;;;;;10323611;28;20259;-80
2022/12/24 14:24:06;;;;;;;9.53;5.37;;;12.40;99.90;;;;;;10346056;28;20204;-81
2022/12/24 14:29:17;;;;;;;13.40;5.03;;;12.30;99.90;;;;;;10345214;28;20310;-81
2022/12/24 14:34:21;;;;;;;9.90;6.40;;;12.30;99.90;;;;;;10334583;28;20635;-80
2022/12/24 14:39:29;;;;;;;12.93;6.70;;;12.30;99.90;;;;;;10335158;28;20283;-80
2022/12/24 14:44:51;;;;;;;10.60;6.13;;;12.20;99.90;;;;;;10334484;28;20667;-80
2022/12/24 14:50:21;;;;;;;15.77;6.73;;;12.20;99.90;;;;;;10333685;28;20219;-80
2022/12/24 14:55:37;;;;;;;14.00;6.97;;;12.20;99.90;;;;;;10333879;28;20324;-80
2022/12/24 15:00:43;;;;;;;13.27;6.80;;;12.10;99.90;;;;;;10302228;28;20242;-81
2022/12/24 15:05:52;;;;;;;11.90;6.63;;;12.10;99.90;;;;;;10337254;28;20373;-81
2022/12/24 15:10:58;;;;;;;9.60;6.00;;;12.00;99.90;;;;;;10333484;28;20203;-80
2022/12/24 15:16:01;;;;;;;11.57;5.60;;;12.00;99.90;;;;;;10333218;28;20680;-80
2022/12/24 15:21:07;;;;;;;11.33;5.60;;;11.90;99.90;;;;;;10334846;28;20273;-80
2022/12/24 15:26:23;;;;;;;6.10;4.90;;;11.80;99.90;;;;;;10353032;28;20214;-81
2022/12/24 15:31:27;;;;;;;9.10;5.50;;;11.80;99.90;;;;;;10338346;28;20195;-81
2022/12/24 15:36:34;;;;;;;8.50;5.97;;;11.70;99.90;;;;;;10333467;28;20722;-80
2022/12/24 15:42:12;;;;;;;10.33;5.90;;;11.70;99.90;;;;;;10334082;28;20223;-80
2022/12/24 15:47:04;;;;;;;8.73;6.90;;;11.60;99.90;;;;;;10336084;28;20215;-80
2022/12/24 15:52:09;;;;;;;10.60;6.80;;;11.50;99.90;;;;;;10342562;28;20298;-80
2022/12/24 15:57:14;;;;;;;16.80;7.37;;;11.40;99.90;;;;;;10343429;28;20294;-79
2022/12/24 16:02:34;;;;;;;8.47;6.00;;;11.40;99.90;;;;;;10350896;28;20205;-79
2022/12/24 16:08:05;;;;;;;12.43;5.50;;;11.40;99.90;;;;;;10308460;28;1094416;-81
2022/12/24 16:13:15;;;;;;;8.17;5.90;;;11.30;99.90;;;;;;10326636;28;20446;-80
2022/12/24 16:18:23;;;;;;;8.17;5.67;;;11.30;99.90;;;;;;10341417;28;20302;-81
2022/12/24 16:23:32;;;;;;;8.47;5.87;;;11.30;99.90;;;;;;10342406;28;20231;-80
2022/12/24 16:28:34;;;;;;;10.97;5.67;;;11.20;99.90;;;;;;10338579;28;20312;-81
2022/12/24 16:33:36;;;;;;;14.90;7.10;;;11.20;99.90;;;;;;10340639;28;20219;-81
2022/12/24 16:43:55;;;;;;;10.23;6.60;;;11.20;99.90;;;;;;10338310;28;20198;-79
2022/12/24 16:48:57;;;;;;;9.93;6.60;;;11.20;99.90;;;;;;10339969;28;20606;-81
2022/12/24 16:54:01;;;;;;;7.50;5.87;;;11.20;99.90;;;;;;10342149;28;20235;-79
2022/12/24 16:59:03;;;;;;;9.77;5.90;;;11.20;99.90;;;;;;10342002;28;20223;-79
2022/12/24 17:04:05;;;;;;;9.47;6.33;;;11.20;99.90;;;;;;10342734;28;20192;-79
2022/12/24 17:09:10;;;;;;;10.70;6.67;;;11.20;99.90;;;;;;10343084;28;20219;-79
2022/12/24 17:14:13;;;;;;;12.20;7.47;;;11.30;99.90;;;;;;10342413;28;20202;-79
2022/12/24 17:19:16;;;;;;;12.30;9.13;;;11.20;99.90;;;;;;10340796;28;20223;-79
2022/12/24 17:24:19;;;;;;;10.17;7.70;;;11.20;99.90;;;;;;10342522;28;20210;-79
2022/12/24 17:29:21;;;;;;;12.73;6.57;;;11.30;99.90;;;;;;10369408;28;20297;-80
2022/12/24 17:34:23;;;;;;;10.13;5.97;;;11.30;99.90;;;;;;10340952;28;20512;-80
2022/12/24 17:39:27;;;;;;;9.07;5.47;;;11.30;99.90;;;;;;10323329;28;20246;-80
2022/12/24 17:44:32;;;;;;;8.40;6.03;;;11.40;99.90;;;;;;10342348;28;20230;-80
2022/12/24 17:49:34;;;;;;;8.87;5.60;;;11.50;99.90;;;;;;10343651;28;20211;-80
2022/12/24 17:54:37;;;;;;;9.23;6.90;;;11.60;99.90;;;;;;10343924;28;20206;-80
2022/12/24 17:59:39;;;;;;;10.77;7.37;;;11.60;99.90;;;;;;10341031;28;20250;-79
2022/12/24 18:04:42;;;;;;;9.20;8.23;;;11.70;99.90;;;;;;10340753;28;20222;-79
2022/12/24 18:09:45;;;;;;;9.60;5.60;;;11.70;99.90;;;;;;10336379;28;20250;-79
2022/12/24 18:14:47;;;;;;;6.40;5.80;;;11.70;99.90;;;;;;10336215;28;20211;-79
2022/12/24 18:19:49;;;;;;;8.33;6.57;;;11.70;99.90;;;;;;10319601;28;20645;-79
2022/12/24 18:24:52;;;;;;;8.20;6.30;;;11.80;99.90;;;;;;10337405;28;20218;-79
2022/12/24 18:29:55;;;;;;;7.10;5.60;;;11.80;99.90;;;;;;10338475;28;20203;-79
2022/12/24 18:34:57;;;;;;;12.23;6.70;;;11.90;99.90;;;;;;10337835;28;20196;-79
2022/12/24 18:40:01;;;;;;;9.33;6.67;;;11.90;99.90;;;;;;10338029;28;20632;-79
2022/12/24 18:45:03;;;;;;;6.20;5.60;;;11.90;99.90;;;;;;10336793;28;20572;-78
2022/12/24 18:50:07;;;;;;;6.73;5.73;;;11.90;99.90;;;;;;10339825;28;20187;-79
2022/12/24 18:55:11;;;;;;;10.17;6.80;;;11.90;99.90;;;;;;10338367;28;20211;-78
2022/12/24 19:00:13;;;;;;;6.97;6.43;;;11.90;99.90;;;;;;10338067;28;20265;-79
2022/12/24 19:05:17;;;;;;;6.73;6.00;;;11.90;99.90;;;;;;10334976;28;20206;-79
2022/12/24 19:10:20;;;;;;;7.87;5.83;;;11.90;99.90;;;;;;10332047;28;20262;-79
2022/12/24 19:15:22;;;;;;;6.73;5.23;;;11.90;99.90;;;;;;10332164;28;20255;-79
2022/12/24 19:20:24;;;;;;;5.50;5.00;;;11.90;99.90;;;;;;10331233;28;20498;-79
2022/12/24 19:25:28;;;;;;;6.50;5.90;;;11.90;99.90;;;;;;10333071;28;20219;-79
2022/12/24 19:30:30;;;;;;;5.93;5.10;;;11.90;99.90;;;;;;10332720;28;20286;-79
2022/12/24 19:35:32;;;;;;;6.27;5.60;;;11.90;99.90;;;;;;10331249;28;20303;-79
2022/12/24 19:40:37;;;;;;;5.23;4.77;;;11.90;99.90;;;;;;10335437;28;20218;-79
2022/12/24 19:45:39;;;;;;;5.57;5.07;;;11.90;99.90;;;;;;10333511;28;20219;-79
2022/12/24 19:50:41;;;;;;;4.80;4.50;;;11.80;99.90;;;;;;10334884;28;20192;-79
2022/12/24 19:55:46;;;;;;;5.20;4.70;;;11.80;99.90;;;;;;10333221;28;20230;-79
2022/12/24 20:00:48;;;;;;;5.80;5.40;;;11.70;99.90;;;;;;10337415;28;20219;-79
2022/12/24 20:05:53;;;;;;;5.40;4.90;;;11.70;99.90;;;;;;10337221;28;20242;-79
2022/12/24 20:10:57;;;;;;;5.87;5.37;;;11.80;99.90;;;;;;10333366;28;20274;-79
2022/12/24 20:16:04;;;;;;;5.30;4.80;;;11.80;99.90;;;;;;10337719;28;20212;-79
2022/12/24 20:21:10;;;;;;;5.20;4.70;;;11.80;99.90;;;;;;10334528;28;20227;-79
2022/12/24 20:26:16;;;;;;;5.43;5.03;;;11.80;99.90;;;;;;10333785;28;20219;-79
2022/12/24 20:31:19;;;;;;;5.13;4.57;;;11.80;99.90;;;;;;10334202;28;20279;-79
2022/12/24 20:36:22;;;;;;;5.43;5.03;;;11.80;99.90;;;;;;10343120;28;20325;-79
2022/12/24 20:41:27;;;;;;;6.23;5.40;;;11.80;99.90;;;;;;10343753;28;20239;-79
2022/12/24 20:46:29;;;;;;;6.73;6.00;;;11.80;99.90;;;;;;10339977;28;20318;-79
2022/12/24 20:51:32;;;;;;;6.30;5.90;;;11.70;99.90;;;;;;10321125;28;20314;-79
2022/12/24 20:56:35;;;;;;;7.33;6.50;;;11.60;99.90;;;;;;10362321;28;20301;-79
2022/12/24 21:01:37;;;;;;;7.93;6.37;;;11.50;99.90;;;;;;10341963;28;20517;-79
2022/12/24 21:06:39;;;;;;;7.10;6.50;;;11.40;99.90;;;;;;10339465;28;20726;-79
2022/12/24 21:17:03;;;;;;;7.13;6.43;;;11.10;99.90;;;;;;10299725;28;20271;-79
2022/12/24 21:22:05;;;;;;;8.00;7.40;;;11.00;99.90;;;;;;10342409;28;20671;-79
2022/12/24 21:27:08;;;;;;;8.40;7.60;;;10.90;99.90;;;;;;10339516;28;20234;-79
2022/12/24 21:32:10;;;;;;;7.07;6.50;;;10.80;99.90;;;;;;10338563;28;20274;-79
2022/12/24 21:37:12;;;;;;;8.53;7.93;;;10.80;99.90;;;;;;10339289;28;20216;-78
2022/12/24 21:42:15;;;;;;;12.17;10.07;;;10.70;99.90;;;;;;10339551;28;20223;-78
2022/12/24 21:47:17;;;;;;;7.37;6.80;;;10.70;99.90;;;;;;10340380;28;20717;-78
2022/12/24 21:52:19;;;;;;;9.03;8.23;;;10.70;99.90;;;;;;10309092;28;20195;-79
2022/12/24 22:02:42;;;;;;;7.30;6.80;;;10.70;99.90;;;;;;10307377;28;20502;-78
2022/12/24 22:13:07;;;;;;;6.97;6.40;;;10.70;99.90;;;;;;10331536;28;20699;-79
2022/12/24 22:18:09;;;;;;;7.60;6.47;;;10.70;99.90;;;;;;10336789;28;20262;-79
2022/12/24 22:23:12;;;;;;;10.33;9.63;;;10.70;99.90;;;;;;10335865;28;20223;-79
2022/12/24 22:28:16;;;;;;;9.40;8.53;;;10.70;99.90;;;;;;10336360;28;20227;-79
2022/12/24 22:33:18;;;;;;;8.20;7.53;;;10.70;99.90;;;;;;10337231;28;20286;-79
2022/12/24 22:38:20;;;;;;;7.80;7.30;;;10.60;99.90;;;;;;10336005;28;20211;-79
2022/12/24 22:43:23;;;;;;;6.70;6.10;;;10.60;99.90;;;;;;10335561;28;20195;-79
2022/12/24 22:48:25;;;;;;;6.00;5.60;;;10.60;99.90;;;;;;10338749;28;20286;-79
2022/12/24 22:53:27;;;;;;;6.87;6.37;;;10.50;99.90;;;;;;10319234;28;20203;-79
2022/12/24 22:58:31;;;;;;;7.10;6.50;;;10.50;99.90;;;;;;10334780;28;20569;-79
2022/12/24 23:03:33;;;;;;;7.43;6.83;;;10.40;99.90;;;;;;10336406;28;20740;-79
2022/12/24 23:08:37;;;;;;;8.67;7.90;;;10.40;99.90;;;;;;10293569;28;20227;-79
2022/12/24 23:19:06;;;;;;;7.70;7.20;;;10.40;99.90;;;;;;10282017;28;20216;-78
2022/12/24 23:24:09;;;;;;;7.93;7.53;;;10.50;99.90;;;;;;10337614;28;20211;-78
2022/12/24 23:29:13;;;;;;;8.67;8.07;;;10.50;99.90;;;;;;10335757;28;20631;-79
2022/12/24 23:34:15;;;;;;;6.67;6.27;;;10.60;99.90;;;;;;10351072;28;20222;-79
2022/12/24 23:39:17;;;;;;;7.70;7.20;;;10.50;99.90;;;;;;10332545;28;20285;-79
2022/12/24 23:44:20;;;;;;;9.43;8.40;;;10.60;99.90;;;;;;10334989;28;20464;-79
2022/12/24 23:49:22;;;;;;;9.00;6.90;;;10.60;99.90;;;;;;10334435;28;20294;-79
2022/12/24 23:54:25;;;;;;;7.30;6.80;;;10.60;99.90;;;;;;10335182;28;20199;-80
2022/12/24 23:59:28;;;;;;;7.80;7.13;;;10.70;99.90;;;;;;10336674;28;20298;-79
